sensor_id;sensor_type;location;lat;lon;timestamp;P1;durP1;ratioP1;P2;durP2;ratioP2
45812;SDS011;31519;45.408;10.962;2024-01-30T00:00:20;56.08;;;28.80;;
45812;SDS011;31519;45.408;10.962;2024-01-30T00:03:08;58.92;;;30.42;;
45812;SDS011;31519;45.408;10.962;2024-01-30T00:05:37;62.10;;;30.67;;
45812;SDS011;31519;45.408;10.962;2024-01-30T00:08:06;55.70;;;28.05;;
45812;SDS011;31519;45.408;10.962;2024-01-30T00:10:34;65.97;;;32.92;;
45812;SDS011;31519;45.408;10.962;2024-01-30T00:13:04;80.72;;;30.70;;
45812;SDS011;31519;45.408;10.962;2024-01-30T00:15:32;96.57;;;29.20;;
45812;SDS011;31519;45.408;10.962;2024-01-30T00:18:00;246.60;;;30.83;;
45812;SDS011;31519;45.408;10.962;2024-01-30T00:20:29;80.30;;;27.77;;
45812;SDS011;31519;45.408;10.962;2024-01-30T00:22:57;138.95;;;28.92;;
45812;SDS011;31519;45.408;10.962;2024-01-30T00:25:26;116.55;;;29.13;;
45812;SDS011;31519;45.408;10.962;2024-01-30T00:27:54;77.82;;;27.77;;
45812;SDS011;31519;45.408;10.962;2024-01-30T00:30:23;119.70;;;26.08;;
45812;SDS011;31519;45.408;10.962;2024-01-30T00:32:51;102.97;;;26.17;;
45812;SDS011;31519;45.408;10.962;2024-01-30T00:35:20;136.50;;;25.40;;
45812;SDS011;31519;45.408;10.962;2024-01-30T00:37:50;99.20;;;24.63;;
45812;SDS011;31519;45.408;10.962;2024-01-30T00:40:19;88.70;;;23.60;;
45812;SDS011;31519;45.408;10.962;2024-01-30T00:42:48;78.82;;;25.27;;
45812;SDS011;31519;45.408;10.962;2024-01-30T00:45:16;61.47;;;23.90;;
45812;SDS011;31519;45.408;10.962;2024-01-30T00:47:45;79.75;;;27.77;;
45812;SDS011;31519;45.408;10.962;2024-01-30T00:50:13;70.72;;;26.73;;
45812;SDS011;31519;45.408;10.962;2024-01-30T00:52:42;92.00;;;24.77;;
45812;SDS011;31519;45.408;10.962;2024-01-30T00:55:13;211.77;;;29.33;;
45812;SDS011;31519;45.408;10.962;2024-01-30T00:57:42;90.28;;;25.63;;
45812;SDS011;31519;45.408;10.962;2024-01-30T01:00:13;98.13;;;27.73;;
45812;SDS011;31519;45.408;10.962;2024-01-30T01:02:45;70.10;;;25.45;;
45812;SDS011;31519;45.408;10.962;2024-01-30T01:05:13;125.63;;;29.67;;
45812;SDS011;31519;45.408;10.962;2024-01-30T01:07:41;71.40;;;27.35;;
45812;SDS011;31519;45.408;10.962;2024-01-30T01:10:10;307.08;;;29.08;;
45812;SDS011;31519;45.408;10.962;2024-01-30T01:12:41;241.93;;;28.67;;
45812;SDS011;31519;45.408;10.962;2024-01-30T01:15:10;125.97;;;25.85;;
45812;SDS011;31519;45.408;10.962;2024-01-30T01:17:38;80.57;;;23.38;;
45812;SDS011;31519;45.408;10.962;2024-01-30T01:20:08;169.57;;;25.35;;
45812;SDS011;31519;45.408;10.962;2024-01-30T01:22:38;98.57;;;21.88;;
45812;SDS011;31519;45.408;10.962;2024-01-30T01:25:06;168.27;;;23.45;;
45812;SDS011;31519;45.408;10.962;2024-01-30T01:27:36;97.55;;;21.75;;
45812;SDS011;31519;45.408;10.962;2024-01-30T01:30:10;90.93;;;22.63;;
45812;SDS011;31519;45.408;10.962;2024-01-30T01:32:39;168.15;;;24.45;;
45812;SDS011;31519;45.408;10.962;2024-01-30T01:35:13;194.00;;;21.38;;
45812;SDS011;31519;45.408;10.962;2024-01-30T01:37:41;95.60;;;22.20;;
45812;SDS011;31519;45.408;10.962;2024-01-30T01:40:09;79.05;;;23.17;;
45812;SDS011;31519;45.408;10.962;2024-01-30T01:42:38;96.72;;;22.02;;
45812;SDS011;31519;45.408;10.962;2024-01-30T01:45:06;161.93;;;23.13;;
45812;SDS011;31519;45.408;10.962;2024-01-30T01:47:35;135.73;;;23.45;;
45812;SDS011;31519;45.408;10.962;2024-01-30T01:50:03;57.28;;;22.77;;
45812;SDS011;31519;45.408;10.962;2024-01-30T01:52:32;78.30;;;22.42;;
45812;SDS011;31519;45.408;10.962;2024-01-30T01:55:02;196.25;;;24.73;;
45812;SDS011;31519;45.408;10.962;2024-01-30T01:57:30;184.25;;;24.77;;
45812;SDS011;31519;45.408;10.962;2024-01-30T02:00:00;106.20;;;24.02;;
45812;SDS011;31519;45.408;10.962;2024-01-30T02:02:35;141.88;;;23.17;;
45812;SDS011;31519;45.408;10.962;2024-01-30T02:05:04;161.80;;;24.55;;
45812;SDS011;31519;45.408;10.962;2024-01-30T02:07:33;71.90;;;21.75;;
45812;SDS011;31519;45.408;10.962;2024-01-30T02:10:02;71.68;;;25.42;;
45812;SDS011;31519;45.408;10.962;2024-01-30T02:12:31;52.95;;;22.42;;
45812;SDS011;31519;45.408;10.962;2024-01-30T02:15:00;44.22;;;22.75;;
45812;SDS011;31519;45.408;10.962;2024-01-30T02:17:29;54.83;;;22.17;;
45812;SDS011;31519;45.408;10.962;2024-01-30T02:19:57;42.15;;;21.80;;
45812;SDS011;31519;45.408;10.962;2024-01-30T02:22:25;39.78;;;21.83;;
45812;SDS011;31519;45.408;10.962;2024-01-30T02:24:54;65.07;;;24.20;;
45812;SDS011;31519;45.408;10.962;2024-01-30T02:27:22;52.55;;;22.13;;
45812;SDS011;31519;45.408;10.962;2024-01-30T02:29:51;43.05;;;23.35;;
45812;SDS011;31519;45.408;10.962;2024-01-30T02:32:19;89.93;;;26.65;;
45812;SDS011;31519;45.408;10.962;2024-01-30T02:34:48;190.23;;;25.98;;
45812;SDS011;31519;45.408;10.962;2024-01-30T02:37:16;49.25;;;23.85;;
45812;SDS011;31519;45.408;10.962;2024-01-30T02:39:45;92.78;;;24.45;;
45812;SDS011;31519;45.408;10.962;2024-01-30T02:42:13;116.60;;;24.38;;
45812;SDS011;31519;45.408;10.962;2024-01-30T02:44:42;91.22;;;22.45;;
45812;SDS011;31519;45.408;10.962;2024-01-30T02:47:10;145.85;;;23.83;;
45812;SDS011;31519;45.408;10.962;2024-01-30T02:49:39;62.47;;;24.10;;
45812;SDS011;31519;45.408;10.962;2024-01-30T02:52:07;114.28;;;26.10;;
45812;SDS011;31519;45.408;10.962;2024-01-30T02:54:35;175.63;;;25.00;;
45812;SDS011;31519;45.408;10.962;2024-01-30T02:57:04;63.45;;;24.52;;
45812;SDS011;31519;45.408;10.962;2024-01-30T02:59:32;189.82;;;27.55;;
45812;SDS011;31519;45.408;10.962;2024-01-30T03:02:03;184.82;;;25.63;;
45812;SDS011;31519;45.408;10.962;2024-01-30T03:04:32;74.78;;;24.50;;
45812;SDS011;31519;45.408;10.962;2024-01-30T03:07:00;95.43;;;22.80;;
45812;SDS011;31519;45.408;10.962;2024-01-30T03:09:29;66.25;;;23.15;;
45812;SDS011;31519;45.408;10.962;2024-01-30T03:11:57;93.30;;;24.75;;
45812;SDS011;31519;45.408;10.962;2024-01-30T03:14:25;106.70;;;25.70;;
45812;SDS011;31519;45.408;10.962;2024-01-30T03:16:53;141.95;;;25.80;;
45812;SDS011;31519;45.408;10.962;2024-01-30T03:19:22;76.55;;;25.33;;
45812;SDS011;31519;45.408;10.962;2024-01-30T03:21:50;221.30;;;26.48;;
45812;SDS011;31519;45.408;10.962;2024-01-30T03:24:19;154.32;;;22.60;;
45812;SDS011;31519;45.408;10.962;2024-01-30T03:26:47;174.65;;;23.88;;
45812;SDS011;31519;45.408;10.962;2024-01-30T03:29:16;74.00;;;22.88;;
45812;SDS011;31519;45.408;10.962;2024-01-30T03:31:44;183.68;;;23.88;;
45812;SDS011;31519;45.408;10.962;2024-01-30T03:34:13;70.55;;;23.48;;
45812;SDS011;31519;45.408;10.962;2024-01-30T03:36:41;215.55;;;25.73;;
45812;SDS011;31519;45.408;10.962;2024-01-30T03:39:10;90.07;;;23.30;;
45812;SDS011;31519;45.408;10.962;2024-01-30T03:41:38;145.05;;;22.92;;
45812;SDS011;31519;45.408;10.962;2024-01-30T03:44:11;72.78;;;22.38;;
45812;SDS011;31519;45.408;10.962;2024-01-30T03:46:39;104.45;;;21.45;;
45812;SDS011;31519;45.408;10.962;2024-01-30T03:49:07;45.85;;;20.10;;
45812;SDS011;31519;45.408;10.962;2024-01-30T03:51:37;143.25;;;21.17;;
45812;SDS011;31519;45.408;10.962;2024-01-30T03:54:06;245.82;;;22.52;;
45812;SDS011;31519;45.408;10.962;2024-01-30T03:56:35;263.33;;;23.58;;
45812;SDS011;31519;45.408;10.962;2024-01-30T03:59:03;189.65;;;24.42;;
45812;SDS011;31519;45.408;10.962;2024-01-30T04:01:31;197.20;;;23.60;;
45812;SDS011;31519;45.408;10.962;2024-01-30T04:04:00;248.65;;;24.10;;
45812;SDS011;31519;45.408;10.962;2024-01-30T04:06:28;112.35;;;21.42;;
45812;SDS011;31519;45.408;10.962;2024-01-30T04:08:57;314.98;;;23.90;;
45812;SDS011;31519;45.408;10.962;2024-01-30T04:11:25;62.40;;;20.90;;
45812;SDS011;31519;45.408;10.962;2024-01-30T04:13:53;211.65;;;24.00;;
45812;SDS011;31519;45.408;10.962;2024-01-30T04:16:22;56.85;;;21.58;;
45812;SDS011;31519;45.408;10.962;2024-01-30T04:18:51;116.80;;;23.58;;
45812;SDS011;31519;45.408;10.962;2024-01-30T04:21:22;214.50;;;22.85;;
45812;SDS011;31519;45.408;10.962;2024-01-30T04:23:51;66.22;;;19.80;;
45812;SDS011;31519;45.408;10.962;2024-01-30T04:26:19;82.35;;;21.55;;
45812;SDS011;31519;45.408;10.962;2024-01-30T04:28:48;210.43;;;21.88;;
45812;SDS011;31519;45.408;10.962;2024-01-30T04:31:16;136.18;;;22.98;;
45812;SDS011;31519;45.408;10.962;2024-01-30T04:33:45;169.93;;;23.33;;
45812;SDS011;31519;45.408;10.962;2024-01-30T04:36:13;151.13;;;24.05;;
45812;SDS011;31519;45.408;10.962;2024-01-30T04:38:41;125.50;;;22.73;;
45812;SDS011;31519;45.408;10.962;2024-01-30T04:41:10;180.52;;;23.63;;
45812;SDS011;31519;45.408;10.962;2024-01-30T04:43:38;80.63;;;24.35;;
45812;SDS011;31519;45.408;10.962;2024-01-30T04:46:06;50.90;;;22.15;;
45812;SDS011;31519;45.408;10.962;2024-01-30T04:48:35;63.70;;;20.33;;
45812;SDS011;31519;45.408;10.962;2024-01-30T04:51:03;113.03;;;21.08;;
45812;SDS011;31519;45.408;10.962;2024-01-30T04:53:32;75.63;;;22.08;;
45812;SDS011;31519;45.408;10.962;2024-01-30T04:56:00;101.70;;;17.83;;
45812;SDS011;31519;45.408;10.962;2024-01-30T04:58:28;119.63;;;20.90;;
45812;SDS011;31519;45.408;10.962;2024-01-30T05:00:57;99.97;;;19.23;;
45812;SDS011;31519;45.408;10.962;2024-01-30T05:03:26;67.10;;;18.42;;
45812;SDS011;31519;45.408;10.962;2024-01-30T05:05:54;75.03;;;17.25;;
45812;SDS011;31519;45.408;10.962;2024-01-30T05:08:23;59.85;;;16.60;;
45812;SDS011;31519;45.408;10.962;2024-01-30T05:10:51;111.80;;;17.23;;
45812;SDS011;31519;45.408;10.962;2024-01-30T05:13:19;37.13;;;16.83;;
45812;SDS011;31519;45.408;10.962;2024-01-30T05:15:48;58.88;;;17.65;;
45812;SDS011;31519;45.408;10.962;2024-01-30T05:18:16;79.70;;;16.25;;
45812;SDS011;31519;45.408;10.962;2024-01-30T05:20:44;49.08;;;17.55;;
45812;SDS011;31519;45.408;10.962;2024-01-30T05:23:13;102.15;;;16.85;;
45812;SDS011;31519;45.408;10.962;2024-01-30T05:25:41;41.55;;;15.95;;
45812;SDS011;31519;45.408;10.962;2024-01-30T05:28:10;109.00;;;17.83;;
45812;SDS011;31519;45.408;10.962;2024-01-30T05:30:38;60.53;;;16.60;;
45812;SDS011;31519;45.408;10.962;2024-01-30T05:33:07;29.38;;;16.00;;
45812;SDS011;31519;45.408;10.962;2024-01-30T05:35:35;55.17;;;17.35;;
45812;SDS011;31519;45.408;10.962;2024-01-30T05:38:03;47.17;;;18.98;;
45812;SDS011;31519;45.408;10.962;2024-01-30T05:40:32;149.13;;;19.27;;
45812;SDS011;31519;45.408;10.962;2024-01-30T05:43:00;60.85;;;16.63;;
45812;SDS011;31519;45.408;10.962;2024-01-30T05:45:30;31.08;;;15.88;;
45812;SDS011;31519;45.408;10.962;2024-01-30T05:47:59;98.45;;;17.08;;
45812;SDS011;31519;45.408;10.962;2024-01-30T05:50:27;136.98;;;17.02;;
45812;SDS011;31519;45.408;10.962;2024-01-30T05:52:56;134.20;;;19.95;;
45812;SDS011;31519;45.408;10.962;2024-01-30T05:55:24;83.45;;;18.08;;
45812;SDS011;31519;45.408;10.962;2024-01-30T05:57:52;287.58;;;21.05;;
45812;SDS011;31519;45.408;10.962;2024-01-30T06:00:21;135.13;;;18.13;;
45812;SDS011;31519;45.408;10.962;2024-01-30T06:02:49;64.78;;;18.30;;
45812;SDS011;31519;45.408;10.962;2024-01-30T06:05:17;61.90;;;18.35;;
45812;SDS011;31519;45.408;10.962;2024-01-30T06:07:46;48.50;;;17.75;;
45812;SDS011;31519;45.408;10.962;2024-01-30T06:10:14;74.68;;;16.90;;
45812;SDS011;31519;45.408;10.962;2024-01-30T06:12:42;73.95;;;17.75;;
45812;SDS011;31519;45.408;10.962;2024-01-30T06:15:11;105.97;;;18.30;;
45812;SDS011;31519;45.408;10.962;2024-01-30T06:17:41;60.85;;;19.00;;
45812;SDS011;31519;45.408;10.962;2024-01-30T06:20:09;26.15;;;15.85;;
45812;SDS011;31519;45.408;10.962;2024-01-30T06:22:38;136.82;;;19.05;;
45812;SDS011;31519;45.408;10.962;2024-01-30T06:25:06;168.45;;;18.55;;
45812;SDS011;31519;45.408;10.962;2024-01-30T06:27:35;96.18;;;18.65;;
45812;SDS011;31519;45.408;10.962;2024-01-30T06:30:04;147.48;;;17.17;;
45812;SDS011;31519;45.408;10.962;2024-01-30T06:32:33;234.63;;;18.13;;
45812;SDS011;31519;45.408;10.962;2024-01-30T06:35:02;171.60;;;18.88;;
45812;SDS011;31519;45.408;10.962;2024-01-30T06:37:31;71.78;;;21.60;;
45812;SDS011;31519;45.408;10.962;2024-01-30T06:39:59;211.15;;;19.05;;
45812;SDS011;31519;45.408;10.962;2024-01-30T06:42:28;155.55;;;18.42;;
45812;SDS011;31519;45.408;10.962;2024-01-30T06:44:56;46.20;;;17.10;;
45812;SDS011;31519;45.408;10.962;2024-01-30T06:47:24;189.52;;;19.50;;
45812;SDS011;31519;45.408;10.962;2024-01-30T06:49:52;64.97;;;19.20;;
45812;SDS011;31519;45.408;10.962;2024-01-30T06:52:21;61.25;;;18.67;;
45812;SDS011;31519;45.408;10.962;2024-01-30T06:54:49;97.50;;;18.85;;
45812;SDS011;31519;45.408;10.962;2024-01-30T06:57:17;82.07;;;19.00;;
45812;SDS011;31519;45.408;10.962;2024-01-30T06:59:46;84.80;;;17.45;;
45812;SDS011;31519;45.408;10.962;2024-01-30T07:02:14;147.65;;;18.35;;
45812;SDS011;31519;45.408;10.962;2024-01-30T07:04:43;65.57;;;18.42;;
45812;SDS011;31519;45.408;10.962;2024-01-30T07:07:14;115.55;;;17.83;;
45812;SDS011;31519;45.408;10.962;2024-01-30T07:09:43;68.13;;;18.60;;
45812;SDS011;31519;45.408;10.962;2024-01-30T07:12:12;48.20;;;16.83;;
45812;SDS011;31519;45.408;10.962;2024-01-30T07:14:40;156.57;;;19.92;;
45812;SDS011;31519;45.408;10.962;2024-01-30T07:17:08;105.78;;;17.23;;
45812;SDS011;31519;45.408;10.962;2024-01-30T07:19:36;65.43;;;17.23;;
45812;SDS011;31519;45.408;10.962;2024-01-30T07:22:05;94.93;;;18.65;;
45812;SDS011;31519;45.408;10.962;2024-01-30T07:24:33;124.97;;;17.95;;
45812;SDS011;31519;45.408;10.962;2024-01-30T07:27:02;93.40;;;17.58;;
45812;SDS011;31519;45.408;10.962;2024-01-30T07:29:31;70.68;;;16.88;;
45812;SDS011;31519;45.408;10.962;2024-01-30T07:31:59;164.15;;;17.95;;
45812;SDS011;31519;45.408;10.962;2024-01-30T07:34:27;222.18;;;18.10;;
45812;SDS011;31519;45.408;10.962;2024-01-30T07:36:56;172.80;;;16.25;;
45812;SDS011;31519;45.408;10.962;2024-01-30T07:39:25;62.10;;;15.35;;
45812;SDS011;31519;45.408;10.962;2024-01-30T07:41:53;104.28;;;16.02;;
45812;SDS011;31519;45.408;10.962;2024-01-30T07:44:21;56.85;;;18.40;;
45812;SDS011;31519;45.408;10.962;2024-01-30T07:46:50;102.10;;;18.05;;
45812;SDS011;31519;45.408;10.962;2024-01-30T07:49:18;50.20;;;19.38;;
45812;SDS011;31519;45.408;10.962;2024-01-30T07:51:47;118.50;;;18.13;;
45812;SDS011;31519;45.408;10.962;2024-01-30T07:54:15;116.72;;;19.17;;
45812;SDS011;31519;45.408;10.962;2024-01-30T07:56:43;39.00;;;17.20;;
45812;SDS011;31519;45.408;10.962;2024-01-30T07:59:11;53.40;;;18.65;;
45812;SDS011;31519;45.408;10.962;2024-01-30T08:01:40;62.15;;;16.60;;
45812;SDS011;31519;45.408;10.962;2024-01-30T08:04:08;57.75;;;17.73;;
45812;SDS011;31519;45.408;10.962;2024-01-30T08:06:37;36.40;;;17.85;;
45812;SDS011;31519;45.408;10.962;2024-01-30T08:09:09;50.42;;;18.35;;
45812;SDS011;31519;45.408;10.962;2024-01-30T08:11:37;52.25;;;17.50;;
45812;SDS011;31519;45.408;10.962;2024-01-30T08:14:05;64.47;;;17.88;;
45812;SDS011;31519;45.408;10.962;2024-01-30T08:16:34;65.82;;;16.55;;
45812;SDS011;31519;45.408;10.962;2024-01-30T08:19:02;60.42;;;18.40;;
45812;SDS011;31519;45.408;10.962;2024-01-30T08:21:31;94.07;;;17.17;;
45812;SDS011;31519;45.408;10.962;2024-01-30T08:24:06;77.93;;;16.92;;
45812;SDS011;31519;45.408;10.962;2024-01-30T08:26:35;42.05;;;15.18;;
45812;SDS011;31519;45.408;10.962;2024-01-30T08:29:04;47.33;;;16.75;;
45812;SDS011;31519;45.408;10.962;2024-01-30T08:31:33;79.00;;;18.10;;
45812;SDS011;31519;45.408;10.962;2024-01-30T08:34:01;64.88;;;16.25;;
45812;SDS011;31519;45.408;10.962;2024-01-30T08:36:30;88.07;;;17.25;;
45812;SDS011;31519;45.408;10.962;2024-01-30T08:38:58;36.55;;;17.73;;
45812;SDS011;31519;45.408;10.962;2024-01-30T08:41:32;130.88;;;19.73;;
45812;SDS011;31519;45.408;10.962;2024-01-30T08:44:00;96.97;;;18.13;;
45812;SDS011;31519;45.408;10.962;2024-01-30T08:46:28;55.08;;;17.17;;
45812;SDS011;31519;45.408;10.962;2024-01-30T08:48:57;30.45;;;16.63;;
45812;SDS011;31519;45.408;10.962;2024-01-30T08:51:25;74.53;;;17.88;;
45812;SDS011;31519;45.408;10.962;2024-01-30T08:53:54;35.83;;;17.67;;
45812;SDS011;31519;45.408;10.962;2024-01-30T08:56:22;48.83;;;17.35;;
45812;SDS011;31519;45.408;10.962;2024-01-30T08:58:51;34.85;;;16.65;;
45812;SDS011;31519;45.408;10.962;2024-01-30T09:01:19;39.65;;;17.88;;
45812;SDS011;31519;45.408;10.962;2024-01-30T09:03:47;45.15;;;19.23;;
45812;SDS011;31519;45.408;10.962;2024-01-30T09:06:16;78.57;;;20.33;;
45812;SDS011;31519;45.408;10.962;2024-01-30T09:08:44;61.63;;;22.58;;
45812;SDS011;31519;45.408;10.962;2024-01-30T09:11:13;64.50;;;21.45;;
45812;SDS011;31519;45.408;10.962;2024-01-30T09:13:42;39.58;;;20.40;;
45812;SDS011;31519;45.408;10.962;2024-01-30T09:16:11;68.93;;;23.27;;
45812;SDS011;31519;45.408;10.962;2024-01-30T09:18:39;73.65;;;22.13;;
45812;SDS011;31519;45.408;10.962;2024-01-30T09:21:09;46.72;;;19.17;;
45812;SDS011;31519;45.408;10.962;2024-01-30T09:23:37;52.08;;;19.80;;
45812;SDS011;31519;45.408;10.962;2024-01-30T09:26:06;58.95;;;20.48;;
45812;SDS011;31519;45.408;10.962;2024-01-30T09:28:34;53.63;;;19.73;;
45812;SDS011;31519;45.408;10.962;2024-01-30T09:31:03;39.55;;;20.15;;
45812;SDS011;31519;45.408;10.962;2024-01-30T09:33:32;60.75;;;19.23;;
45812;SDS011;31519;45.408;10.962;2024-01-30T09:36:00;62.95;;;22.95;;
45812;SDS011;31519;45.408;10.962;2024-01-30T09:38:29;96.25;;;21.63;;
45812;SDS011;31519;45.408;10.962;2024-01-30T09:40:57;84.55;;;20.60;;
45812;SDS011;31519;45.408;10.962;2024-01-30T09:43:27;48.25;;;19.80;;
45812;SDS011;31519;45.408;10.962;2024-01-30T09:46:02;64.95;;;20.10;;
45812;SDS011;31519;45.408;10.962;2024-01-30T09:48:33;44.92;;;19.75;;
45812;SDS011;31519;45.408;10.962;2024-01-30T09:51:02;42.33;;;20.42;;
45812;SDS011;31519;45.408;10.962;2024-01-30T09:53:31;75.68;;;20.38;;
45812;SDS011;31519;45.408;10.962;2024-01-30T09:56:00;55.83;;;22.30;;
45812;SDS011;31519;45.408;10.962;2024-01-30T09:58:30;89.53;;;22.45;;
45812;SDS011;31519;45.408;10.962;2024-01-30T10:00:59;77.40;;;22.75;;
45812;SDS011;31519;45.408;10.962;2024-01-30T10:03:27;58.22;;;19.95;;
45812;SDS011;31519;45.408;10.962;2024-01-30T10:05:56;45.20;;;21.20;;
45812;SDS011;31519;45.408;10.962;2024-01-30T10:08:26;44.47;;;20.50;;
45812;SDS011;31519;45.408;10.962;2024-01-30T10:10:55;43.65;;;21.20;;
45812;SDS011;31519;45.408;10.962;2024-01-30T10:13:23;58.95;;;20.92;;
45812;SDS011;31519;45.408;10.962;2024-01-30T10:15:52;45.92;;;21.52;;
45812;SDS011;31519;45.408;10.962;2024-01-30T10:18:22;39.90;;;19.48;;
45812;SDS011;31519;45.408;10.962;2024-01-30T10:20:52;39.15;;;19.73;;
45812;SDS011;31519;45.408;10.962;2024-01-30T10:23:20;41.67;;;19.95;;
45812;SDS011;31519;45.408;10.962;2024-01-30T10:25:48;41.88;;;20.00;;
45812;SDS011;31519;45.408;10.962;2024-01-30T10:28:19;39.03;;;19.38;;
45812;SDS011;31519;45.408;10.962;2024-01-30T10:30:57;37.28;;;18.77;;
45812;SDS011;31519;45.408;10.962;2024-01-30T10:33:32;41.08;;;19.73;;
45812;SDS011;31519;45.408;10.962;2024-01-30T10:36:02;44.08;;;20.55;;
45812;SDS011;31519;45.408;10.962;2024-01-30T10:38:32;44.40;;;19.88;;
45812;SDS011;31519;45.408;10.962;2024-01-30T10:41:01;48.13;;;23.00;;
45812;SDS011;31519;45.408;10.962;2024-01-30T10:43:35;50.63;;;22.58;;
45812;SDS011;31519;45.408;10.962;2024-01-30T10:46:17;53.40;;;23.83;;
45812;SDS011;31519;45.408;10.962;2024-01-30T10:48:50;43.15;;;21.75;;
45812;SDS011;31519;45.408;10.962;2024-01-30T10:51:26;56.65;;;24.35;;
45812;SDS011;31519;45.408;10.962;2024-01-30T10:53:55;53.70;;;22.73;;
45812;SDS011;31519;45.408;10.962;2024-01-30T10:56:26;50.78;;;24.88;;
45812;SDS011;31519;45.408;10.962;2024-01-30T10:58:55;61.30;;;25.88;;
45812;SDS011;31519;45.408;10.962;2024-01-30T11:01:24;52.72;;;24.75;;
45812;SDS011;31519;45.408;10.962;2024-01-30T11:03:55;65.00;;;25.83;;
45812;SDS011;31519;45.408;10.962;2024-01-30T11:06:25;60.30;;;28.50;;
45812;SDS011;31519;45.408;10.962;2024-01-30T11:09:04;62.42;;;25.92;;
45812;SDS011;31519;45.408;10.962;2024-01-30T11:11:51;63.33;;;26.95;;
45812;SDS011;31519;45.408;10.962;2024-01-30T11:14:24;80.10;;;33.58;;
45812;SDS011;31519;45.408;10.962;2024-01-30T11:16:58;70.38;;;30.20;;
45812;SDS011;31519;45.408;10.962;2024-01-30T11:19:30;71.57;;;29.92;;
45812;SDS011;31519;45.408;10.962;2024-01-30T11:21:59;72.72;;;30.95;;
45812;SDS011;31519;45.408;10.962;2024-01-30T11:24:28;83.80;;;31.85;;
45812;SDS011;31519;45.408;10.962;2024-01-30T11:26:57;95.18;;;36.58;;
45812;SDS011;31519;45.408;10.962;2024-01-30T11:29:31;86.75;;;32.20;;
45812;SDS011;31519;45.408;10.962;2024-01-30T11:32:04;87.18;;;30.52;;
45812;SDS011;31519;45.408;10.962;2024-01-30T11:34:32;78.93;;;29.30;;
45812;SDS011;31519;45.408;10.962;2024-01-30T11:37:06;67.15;;;28.05;;
45812;SDS011;31519;45.408;10.962;2024-01-30T11:39:39;73.97;;;26.33;;
45812;SDS011;31519;45.408;10.962;2024-01-30T11:42:09;54.33;;;24.63;;
45812;SDS011;31519;45.408;10.962;2024-01-30T11:44:39;45.63;;;24.77;;
45812;SDS011;31519;45.408;10.962;2024-01-30T11:47:07;47.45;;;24.88;;
45812;SDS011;31519;45.408;10.962;2024-01-30T11:49:35;48.72;;;24.63;;
45812;SDS011;31519;45.408;10.962;2024-01-30T11:52:04;42.83;;;22.55;;
45812;SDS011;31519;45.408;10.962;2024-01-30T11:54:33;52.63;;;23.05;;
45812;SDS011;31519;45.408;10.962;2024-01-30T11:57:01;46.00;;;22.00;;
45812;SDS011;31519;45.408;10.962;2024-01-30T11:59:30;41.22;;;23.52;;
45812;SDS011;31519;45.408;10.962;2024-01-30T12:01:58;36.03;;;22.23;;
45812;SDS011;31519;45.408;10.962;2024-01-30T12:04:28;46.05;;;21.65;;
45812;SDS011;31519;45.408;10.962;2024-01-30T12:06:57;47.97;;;20.75;;
45812;SDS011;31519;45.408;10.962;2024-01-30T12:09:31;31.85;;;20.63;;
45812;SDS011;31519;45.408;10.962;2024-01-30T12:11:59;41.47;;;21.00;;
45812;SDS011;31519;45.408;10.962;2024-01-30T12:14:28;37.72;;;20.63;;
45812;SDS011;31519;45.408;10.962;2024-01-30T12:16:57;38.70;;;20.67;;
45812;SDS011;31519;45.408;10.962;2024-01-30T12:19:26;35.83;;;21.08;;
45812;SDS011;31519;45.408;10.962;2024-01-30T12:21:58;48.47;;;22.38;;
45812;SDS011;31519;45.408;10.962;2024-01-30T12:24:29;44.35;;;22.50;;
45812;SDS011;31519;45.408;10.962;2024-01-30T12:27:00;43.20;;;22.02;;
45812;SDS011;31519;45.408;10.962;2024-01-30T12:29:31;53.03;;;24.00;;
45812;SDS011;31519;45.408;10.962;2024-01-30T12:32:06;44.67;;;22.10;;
45812;SDS011;31519;45.408;10.962;2024-01-30T12:34:34;40.67;;;20.77;;
45812;SDS011;31519;45.408;10.962;2024-01-30T12:37:24;39.47;;;19.73;;
45812;SDS011;31519;45.408;10.962;2024-01-30T12:39:53;36.97;;;21.20;;
45812;SDS011;31519;45.408;10.962;2024-01-30T12:42:22;51.95;;;22.08;;
45812;SDS011;31519;45.408;10.962;2024-01-30T12:44:50;43.17;;;21.98;;
45812;SDS011;31519;45.408;10.962;2024-01-30T12:47:21;36.58;;;21.05;;
45812;SDS011;31519;45.408;10.962;2024-01-30T12:49:49;36.17;;;22.23;;
45812;SDS011;31519;45.408;10.962;2024-01-30T12:52:21;38.13;;;22.88;;
45812;SDS011;31519;45.408;10.962;2024-01-30T12:54:51;50.50;;;22.08;;
45812;SDS011;31519;45.408;10.962;2024-01-30T12:57:20;52.15;;;23.10;;
45812;SDS011;31519;45.408;10.962;2024-01-30T12:59:48;41.20;;;22.90;;
45812;SDS011;31519;45.408;10.962;2024-01-30T13:02:17;34.30;;;20.98;;
45812;SDS011;31519;45.408;10.962;2024-01-30T13:04:45;37.63;;;21.08;;
45812;SDS011;31519;45.408;10.962;2024-01-30T13:07:17;44.90;;;21.35;;
45812;SDS011;31519;45.408;10.962;2024-01-30T13:09:45;43.42;;;21.95;;
45812;SDS011;31519;45.408;10.962;2024-01-30T13:12:15;44.47;;;21.50;;
45812;SDS011;31519;45.408;10.962;2024-01-30T13:14:44;49.80;;;21.90;;
45812;SDS011;31519;45.408;10.962;2024-01-30T13:17:13;44.30;;;21.67;;
45812;SDS011;31519;45.408;10.962;2024-01-30T13:19:41;36.90;;;21.50;;
45812;SDS011;31519;45.408;10.962;2024-01-30T13:22:10;46.53;;;22.98;;
45812;SDS011;31519;45.408;10.962;2024-01-30T13:24:38;42.92;;;21.58;;
45812;SDS011;31519;45.408;10.962;2024-01-30T13:27:06;45.63;;;21.65;;
45812;SDS011;31519;45.408;10.962;2024-01-30T13:29:35;55.35;;;30.55;;
45812;SDS011;31519;45.408;10.962;2024-01-30T13:32:04;37.55;;;22.60;;
45812;SDS011;31519;45.408;10.962;2024-01-30T13:34:32;33.28;;;20.25;;
45812;SDS011;31519;45.408;10.962;2024-01-30T13:37:01;36.00;;;20.08;;
45812;SDS011;31519;45.408;10.962;2024-01-30T13:39:29;48.13;;;20.52;;
45812;SDS011;31519;45.408;10.962;2024-01-30T13:42:05;39.78;;;21.90;;
45812;SDS011;31519;45.408;10.962;2024-01-30T13:44:34;37.35;;;19.48;;
45812;SDS011;31519;45.408;10.962;2024-01-30T13:47:04;42.35;;;23.55;;
45812;SDS011;31519;45.408;10.962;2024-01-30T13:49:32;37.95;;;21.52;;
45812;SDS011;31519;45.408;10.962;2024-01-30T13:52:01;35.95;;;21.85;;
45812;SDS011;31519;45.408;10.962;2024-01-30T13:54:31;36.45;;;21.38;;
45812;SDS011;31519;45.408;10.962;2024-01-30T13:57:00;37.85;;;21.10;;
45812;SDS011;31519;45.408;10.962;2024-01-30T13:59:28;47.65;;;20.85;;
45812;SDS011;31519;45.408;10.962;2024-01-30T14:01:57;35.47;;;20.08;;
45812;SDS011;31519;45.408;10.962;2024-01-30T14:04:25;38.58;;;21.40;;
45812;SDS011;31519;45.408;10.962;2024-01-30T14:06:54;40.17;;;21.70;;
45812;SDS011;31519;45.408;10.962;2024-01-30T14:09:31;42.58;;;22.25;;
45812;SDS011;31519;45.408;10.962;2024-01-30T14:12:00;43.72;;;21.73;;
45812;SDS011;31519;45.408;10.962;2024-01-30T14:14:28;44.83;;;24.17;;
45812;SDS011;31519;45.408;10.962;2024-01-30T14:16:57;46.30;;;23.55;;